หน้าหลัก
METAR-TAF:

METAR-TAF

ท่าอากาศยาน :

Kirkwall, สกอตแลนด์

ละติจูด: 58-57N, ลองจิจูด: 002-54W, ความสูง: 21 ม.

การสังเกตสภาพอากาศปัจจุบัน

รายงานได้ทำขึ้นเมื่อ 27 นาทีที่แล้ว ณ เวลา 03:20 UTC
ลม 1 นอตจากใต้
อุณหภูมิ 6°C
ความชื้น 93%
ความกดอากาศ 1012 hPa
ทัศนวิสัย 10 กม. หรือมากกว่า

METAR: EGPA 130320Z AUTO 18001KT 9999 NCD 06/05 Q1012

เวลา: 04:47 (03:47 UTC)

การพยากรณ์

รายงานได้ทำขึ้นเมื่อ 1 ชั่วโมงและ 54 นาทีที่แล้ว ณ เวลา 01:53 UTC
การพยากรณ์มีผลตั้งแต่วันที่ 13 ณ เวลา 03 UTC จนถึงวันที่ 13 ณ เวลา 12 UTC
ลม 5 นอตจากตะวันตก/ตะวันตกเฉียงใต้
ทัศนวิสัย 10 กม. หรือมากกว่า
มีเมฆน้อยที่ความสูง 3000 ฟุต
กำลังกลายเป็น
ตั้งแต่วันที่ 13 ณ เวลา 06 UTC จนถึงวันที่ 13 ณ เวลา 09 UTC
ลม 10 นอตจากตะวันออก/ตะวันออกเฉียงใต้
ความน่าจะเป็น 30% :
ชั่วคราว
ตั้งแต่วันที่ 13 ณ เวลา 09 UTC จนถึงวันที่ 13 ณ เวลา 12 UTC
มีเมฆเป็นส่วนมากเว้นเป็นระยะที่ความสูง 900 ฟุต

TAF: EGPA 130153Z 1303/1312 24005KT 9999 FEW030 BECMG 1306/1309 11010KT PROB30 TEMPO 1309/1312 BKN009

สังเกตการณ์สภาพอากาศและพยากรณ์อากาศของสนามบินมากกว่า 4000 แห่ง (รายงาน METAR และ TAF).

สถานีที่ดูได้จะแสดงไว้ด้วยจุดสีเหลืองและสีแดงบนแผนที่.

เลื่อนเมาส์ไปเหนือจุดเพื่อดูชื่อสถานี.

แล้วคลิกเพื่อดูสังเกตการณ์และการพยากรณ์สภาพอากาศ.

ในการเปลี่ยนแผนที่: คลิกที่ปุ่มสีเขียวที่มีกากบาทสีดำเพื่อซูมเข้า; ที่ปุ่มสีเขียวที่มีขีดเพื่อซูมออก; หรือที่ลูกศรสีเขียวเพื่อไปยังแผนที่ที่อยู่ติดกัน.


METAR-TAF: